Time;durP1;ratioP1;P1;durP2;ratioP2;P2;SDS_P1;SDS_P2;PMS_P1;PMS_P2;Temp;Humidity;BMP_temperature;BMP_pressure;BME280_temperature;BME280_humidity;BME280_pressure;Samples;Min_cycle;Max_cycle;Signal;HPM_P1;HPM_P2
2022/03/22 00:00:43;;;;;;;16.83;11.97;;;;;;;2.55;82.57;99576.22;5047196;28;20251;-71
2022/03/22 00:03:10;;;;;;;16.23;10.90;;;;;;;2.51;83.42;99569.34;5046600;28;20698;-70
2022/03/22 00:05:40;;;;;;;15.70;11.50;;;;;;;2.55;82.86;99566.66;5051636;28;20646;-70
2022/03/22 00:08:06;;;;;;;16.97;10.83;;;;;;;2.60;82.29;99570.09;5053149;28;20624;-70
2022/03/22 00:10:33;;;;;;;16.17;11.60;;;;;;;2.56;81.45;99565.78;5037274;28;20216;-69
2022/03/22 00:12:59;;;;;;;14.83;10.90;;;;;;;2.55;81.55;99563.19;5046265;28;20689;-69
2022/03/22 00:15:26;;;;;;;15.87;11.27;;;;;;;2.56;81.77;99565.78;5049671;28;20213;-70
2022/03/22 00:17:54;;;;;;;16.93;10.90;;;;;;;2.59;81.36;99557.91;5053512;28;20242;-70
2022/03/22 00:20:20;;;;;;;15.60;10.93;;;;;;;2.56;80.37;99559.72;5043337;28;20239;-70
2022/03/22 00:22:48;;;;;;;16.43;11.30;;;;;;;2.39;79.47;99565.16;5046262;28;20705;-71
2022/03/22 00:25:16;;;;;;;14.77;10.53;;;;;;;2.27;79.68;99565.31;5050808;28;20227;-71
2022/03/22 00:27:53;;;;;;;15.00;10.93;;;;;;;2.18;80.54;99564.59;5053550;28;20219;-71
2022/03/22 00:30:20;;;;;;;15.87;12.10;;;;;;;2.20;81.17;99553.25;5046662;28;20265;-71
2022/03/22 00:32:47;;;;;;;15.13;10.97;;;;;;;2.21;81.70;99569.78;5046081;28;20217;-70
2022/03/22 00:35:17;;;;;;;16.83;11.27;;;;;;;2.22;82.66;99561.06;5053011;28;20625;-71
2022/03/22 00:37:44;;;;;;;18.03;12.17;;;;;;;2.24;82.72;99554.06;5051318;28;20215;-70
2022/03/22 00:40:13;;;;;;;17.07;11.57;;;;;;;2.26;83.76;99563.59;5038101;28;20248;-70
2022/03/22 00:42:39;;;;;;;17.97;12.10;;;;;;;2.23;84.83;99560.19;5046250;28;20249;-71
2022/03/22 00:45:07;;;;;;;18.13;12.83;;;;;;;2.23;84.82;99558.44;5053599;28;20293;-70
2022/03/22 00:47:34;;;;;;;18.40;12.93;;;;;;;2.17;86.25;99562.88;5055683;28;20222;-70
2022/03/22 00:50:00;;;;;;;20.23;13.97;;;;;;;2.09;87.52;99555.13;5050628;28;20226;-70
2022/03/22 00:52:28;;;;;;;17.80;12.40;;;;;;;2.02;88.49;99561.31;5050330;28;20258;-70
2022/03/22 00:54:55;;;;;;;18.80;13.23;;;;;;;1.91;89.79;99559.75;5057264;28;20218;-70
2022/03/22 00:57:21;;;;;;;17.27;12.07;;;;;;;1.89;90.46;99561.50;5055971;28;20243;-70
2022/03/22 01:00:04;;;;;;;18.03;13.00;;;;;;;1.84;90.65;99556.34;5050089;28;20211;-70
2022/03/22 01:02:32;;;;;;;18.40;13.03;;;;;;;1.87;90.02;99558.03;5052743;28;20611;-71
2022/03/22 01:04:58;;;;;;;17.87;12.70;;;;;;;1.83;90.30;99557.22;5057501;28;20215;-71
2022/03/22 01:07:25;;;;;;;18.77;12.10;;;;;;;1.85;90.49;99550.22;5050443;28;20226;-69
2022/03/22 01:09:53;;;;;;;16.40;12.17;;;;;;;1.88;91.32;99549.34;5049727;28;20230;-70
2022/03/22 01:12:19;;;;;;;18.33;13.13;;;;;;;1.92;90.56;99551.91;5051852;28;20705;-70
2022/03/22 01:14:46;;;;;;;19.17;13.07;;;;;;;1.82;91.44;99555.50;5056871;28;20299;-70
2022/03/22 01:17:12;;;;;;;19.50;13.80;;;;;;;1.71;92.33;99557.34;5052060;28;20219;-70
2022/03/22 01:19:39;;;;;;;18.13;13.30;;;;;;;1.68;92.73;99554.81;5054039;28;20210;-70
2022/03/22 01:22:06;;;;;;;20.80;13.23;;;;;;;1.66;92.97;99547.88;5053827;28;20213;-70
2022/03/22 01:24:33;;;;;;;20.50;13.13;;;;;;;1.63;93.69;99548.78;5057079;28;20254;-70
2022/03/22 01:27:00;;;;;;;17.50;12.40;;;;;;;1.61;93.64;99554.88;5053124;28;20222;-71
2022/03/22 01:29:28;;;;;;;22.03;13.80;;;;;;;1.53;94.64;99552.34;5049628;28;20312;-70
2022/03/22 01:31:55;;;;;;;18.40;13.33;;;;;;;1.51;94.56;99546.31;5049986;28;20670;-70
2022/03/22 01:34:21;;;;;;;19.27;13.80;;;;;;;1.48;94.22;99542.88;5055368;28;20227;-70
2022/03/22 01:36:48;;;;;;;18.93;12.60;;;;;;;1.53;94.04;99541.09;5055245;28;20297;-69
2022/03/22 01:39:14;;;;;;;20.17;12.83;;;;;;;1.43;94.71;99542.94;5049473;28;20223;-69
2022/03/22 01:41:41;;;;;;;18.10;12.63;;;;;;;1.42;94.24;99546.38;5049586;28;20245;-69
2022/03/22 01:44:09;;;;;;;18.57;12.23;;;;;;;1.41;93.87;99541.22;5056574;28;20223;-69
2022/03/22 01:46:36;;;;;;;19.00;12.13;;;;;;;1.31;94.14;99537.84;5053695;28;20215;-69
2022/03/22 01:49:03;;;;;;;22.37;13.97;;;;;;;1.39;94.00;99541.22;5049416;28;20224;-70
2022/03/22 01:51:32;;;;;;;16.73;12.13;;;;;;;1.34;93.75;99535.19;5049140;28;20229;-70
2022/03/22 01:53:59;;;;;;;18.43;11.97;;;;;;;1.23;95.21;99531.84;5045838;28;20214;-70
2022/03/22 01:56:26;;;;;;;18.30;12.50;;;;;;;1.20;95.88;99529.28;5052280;28;20694;-70
2022/03/22 01:58:55;;;;;;;19.93;12.83;;;;;;;1.20;95.82;99529.28;5047539;28;20708;-70
2022/03/22 02:06:54;;;;;;;17.47;11.83;;;;;;;0.97;96.18;99533.84;5049037;28;20639;-70
2022/03/22 02:09:21;;;;;;;17.67;12.20;;;;;;;0.94;95.35;99533.88;5051011;28;20215;-70
2022/03/22 02:11:47;;;;;;;16.63;11.73;;;;;;;0.89;94.57;99534.78;5056291;28;20592;-69
2022/03/22 02:14:14;;;;;;;18.63;12.77;;;;;;;0.82;93.96;99528.78;5051582;28;20248;-70
2022/03/22 02:16:42;;;;;;;18.07;12.83;;;;;;;0.72;95.10;99521.03;5048781;28;20217;-69
2022/03/22 02:19:10;;;;;;;17.67;12.90;;;;;;;0.66;96.86;99528.91;5049635;28;20225;-70
2022/03/22 02:21:39;;;;;;;18.20;12.27;;;;;;;0.65;95.71;99515.03;5052835;28;20283;-69
2022/03/22 02:24:08;;;;;;;17.37;12.23;;;;;;;0.65;94.63;99515.03;5050806;28;20227;-70
2022/03/22 02:26:36;;;;;;;20.13;12.23;;;;;;;0.63;96.44;99513.31;5047015;28;20224;-71
2022/03/22 02:29:03;;;;;;;19.60;12.73;;;;;;;0.69;96.40;99511.53;5051159;28;20235;-71
2022/03/22 02:31:32;;;;;;;18.20;12.10;;;;;;;0.76;94.62;99528.84;5055884;28;20241;-69
2022/03/22 02:33:58;;;;;;;17.23;12.03;;;;;;;0.77;92.27;99525.34;5048044;28;20707;-71
2022/03/22 02:36:25;;;;;;;18.37;11.57;;;;;;;0.63;92.16;99524.56;5048330;28;20228;-71
2022/03/22 02:38:52;;;;;;;16.87;11.50;;;;;;;0.63;92.45;99521.97;5050490;28;20281;-69
2022/03/22 02:41:22;;;;;;;18.77;11.70;;;;;;;0.58;93.96;99523.78;5055674;28;20239;-71
2022/03/22 02:43:50;;;;;;;19.87;13.10;;;;;;;0.56;94.90;99520.31;5047943;28;20217;-71
2022/03/22 02:46:17;;;;;;;19.07;12.70;;;;;;;0.53;95.54;99525.53;5048228;28;20618;-71
2022/03/22 02:48:44;;;;;;;19.30;12.73;;;;;;;0.49;96.89;99528.19;5051046;28;20217;-70
2022/03/22 02:51:11;;;;;;;18.83;12.80;;;;;;;0.48;98.02;99531.63;5055058;28;20676;-70
2022/03/22 02:53:38;;;;;;;18.77;12.80;;;;;;;0.50;98.12;99522.94;5048553;28;20588;-69
2022/03/22 02:56:05;;;;;;;18.70;12.33;;;;;;;0.51;98.48;99527.28;5047914;28;20220;-69
2022/03/22 02:58:34;;;;;;;18.93;13.27;;;;;;;0.54;98.72;99527.25;5050222;28;20220;-70
2022/03/22 03:01:00;;;;;;;18.33;12.70;;;;;;;0.52;98.54;99523.81;5055122;28;20248;-70
2022/03/22 03:03:27;;;;;;;19.33;13.23;;;;;;;0.53;99.25;99512.53;5049619;28;20217;-70
2022/03/22 03:05:54;;;;;;;18.73;12.43;;;;;;;0.63;98.78;99516.78;5047438;28;20707;-70
2022/03/22 03:08:21;;;;;;;18.23;12.17;;;;;;;0.65;97.93;99512.44;5049094;28;20219;-70
2022/03/22 03:10:48;;;;;;;19.03;13.20;;;;;;;0.77;98.35;99509.75;5056199;28;20619;-70
2022/03/22 03:13:15;;;;;;;19.47;13.00;;;;;;;0.82;98.08;99512.28;5049782;28;20690;-70
2022/03/22 03:15:44;;;;;;;20.70;12.63;;;;;;;0.86;98.19;99520.06;5047568;28;20215;-70
2022/03/22 03:18:10;;;;;;;20.67;13.90;;;;;;;0.83;98.49;99522.69;5047655;28;20277;-69
2022/03/22 03:20:37;;;;;;;19.97;13.10;;;;;;;0.70;96.11;99523.69;5062173;28;20234;-69
2022/03/22 03:23:03;;;;;;;21.23;12.40;;;;;;;0.66;95.30;99527.16;5050049;28;20325;-69
2022/03/22 03:25:30;;;;;;;18.57;11.87;;;;;;;0.53;95.08;99535.06;5047321;28;20214;-70
2022/03/22 03:27:57;;;;;;;18.77;12.73;;;;;;;0.48;95.24;99531.63;5048037;28;20227;-69
2022/03/22 03:30:24;;;;;;;19.33;12.80;;;;;;;0.39;98.70;99527.34;5054411;28;20217;-69
2022/03/22 03:32:51;;;;;;;19.70;13.20;;;;;;;0.52;97.58;99533.34;5051151;28;20225;-69
2022/03/22 03:35:18;;;;;;;19.13;12.30;;;;;;;0.51;98.57;99545.47;5057160;28;20216;-69
2022/03/22 03:37:45;;;;;;;21.23;13.67;;;;;;;0.57;98.21;99539.38;5049623;28;20228;-69
2022/03/22 03:40:13;;;;;;;21.37;13.60;;;;;;;0.60;97.80;99541.94;5057330;28;20305;-70
2022/03/22 03:42:42;;;;;;;21.67;13.30;;;;;;;0.63;98.96;99544.53;5056357;28;20243;-69
2022/03/22 03:47:57;;;;;;;19.93;13.47;;;;;;;0.60;98.87;99537.63;5053060;28;20701;-69
2022/03/22 03:50:24;;;;;;;20.30;13.83;;;;;;;0.53;99.50;99533.34;5052889;28;20677;-69
2022/03/22 03:52:50;;;;;;;19.07;13.07;;;;;;;0.55;99.59;99538.53;5052760;28;20307;-69
2022/03/22 03:55:17;;;;;;;20.43;14.07;;;;;;;0.52;100.00;99536.84;5053077;28;20670;-69
2022/03/22 03:57:44;;;;;;;23.33;14.70;;;;;;;0.55;100.00;99544.59;5042790;28;20216;-70
2022/03/22 04:00:12;;;;;;;22.77;14.57;;;;;;;0.55;100.00;99543.75;5048344;28;20247;-70
2022/03/22 04:02:40;;;;;;;25.13;15.43;;;;;;;0.57;100.00;99537.63;5037425;28;20261;-69
2022/03/22 04:05:09;;;;;;;19.53;13.63;;;;;;;0.64;100.00;99539.34;5046722;28;20228;-69
2022/03/22 04:07:36;;;;;;;22.87;14.67;;;;;;;0.72;100.00;99536.66;5044480;28;20296;-69
2022/03/22 04:10:02;;;;;;;22.83;14.57;;;;;;;0.76;100.00;99539.25;5036829;28;20220;-70
2022/03/22 04:12:28;;;;;;;23.10;14.60;;;;;;;0.75;100.00;99534.88;5049633;28;20210;-70
2022/03/22 04:14:55;;;;;;;21.07;14.37;;;;;;;0.62;100.00;99546.28;5039549;28;20219;-71
2022/03/22 04:17:22;;;;;;;23.03;15.07;;;;;;;0.50;100.00;99543.75;5042920;28;20295;-71
2022/03/22 04:19:49;;;;;;;25.23;15.03;;;;;;;0.42;100.00;99553.34;5046754;28;20208;-70
2022/03/22 04:22:18;;;;;;;23.03;14.70;;;;;;;0.39;100.00;99544.72;5050830;28;20246;-70
2022/03/22 04:24:44;;;;;;;19.70;13.93;;;;;;;0.34;100.00;99547.34;5039561;28;20216;-70
2022/03/22 04:32:45;;;;;;;21.17;14.97;;;;;;;0.33;100.00;99545.59;5039699;28;20257;-71
2022/03/22 04:35:13;;;;;;;24.23;15.17;;;;;;;0.34;100.00;99549.97;5041459;28;20223;-70
2022/03/22 04:37:41;;;;;;;22.20;15.17;;;;;;;0.33;100.00;99548.19;5047236;28;20246;-69
2022/03/22 04:40:08;;;;;;;22.77;14.83;;;;;;;0.32;100.00;99556.88;5036733;28;20217;-69
2022/03/22 04:42:35;;;;;;;20.93;15.60;;;;;;;0.23;100.00;99550.88;5045148;28;20607;-69
2022/03/22 04:45:02;;;;;;;22.93;15.33;;;;;;;0.18;100.00;99563.03;5044538;28;20218;-69
2022/03/22 04:47:29;;;;;;;23.47;14.80;;;;;;;0.16;100.00;99555.25;5037436;28;20221;-69
2022/03/22 04:49:55;;;;;;;26.13;15.10;;;;;;;0.16;100.00;99560.47;5049010;28;20752;-69
2022/03/22 04:57:52;;;;;;;20.60;14.17;;;;;;;0.18;100.00;99563.91;5036527;28;20588;-70
2022/03/22 05:00:19;;;;;;;20.43;14.80;;;;;;;0.15;100.00;99574.34;5044696;28;20313;-69
2022/03/22 05:02:47;;;;;;;19.73;14.03;;;;;;;0.11;100.00;99566.53;5042780;28;20259;-69
2022/03/22 05:05:13;;;;;;;21.33;15.10;;;;;;;0.06;100.00;99573.50;5036829;28;20413;-69
2022/03/22 05:07:40;;;;;;;21.50;14.43;;;;;;;0.08;100.00;99567.41;5048830;28;20209;-69
2022/03/22 05:10:10;;;;;;;22.63;15.20;;;;;;;0.00;100.00;99578.75;5040471;28;20215;-70
2022/03/22 05:12:40;;;;;;;22.13;13.47;;;;;;;0.01;100.00;99586.53;5040889;28;20225;-70
2022/03/22 05:15:09;;;;;;;21.87;14.00;;;;;;;-0.05;100.00;99583.94;5048715;28;20755;-70
2022/03/22 05:17:36;;;;;;;22.10;14.30;;;;;;;-0.06;100.00;99584.81;5037188;28;20299;-70
2022/03/22 05:20:04;;;;;;;21.10;13.83;;;;;;;-0.13;100.00;99588.31;5051713;28;20215;-70
2022/03/22 05:22:31;;;;;;;20.13;13.60;;;;;;;-0.11;100.00;99586.56;5052235;28;20789;-70
2022/03/22 05:24:58;;;;;;;19.80;12.73;;;;;;;-0.08;100.00;99584.84;5036599;28;20219;-69
2022/03/22 05:27:26;;;;;;;22.10;14.20;;;;;;;-0.14;100.00;99588.31;5048385;28;20302;-69
2022/03/22 05:29:52;;;;;;;20.07;12.40;;;;;;;-0.04;100.00;99597.81;5039588;28;20224;-70
2022/03/22 05:32:19;;;;;;;16.07;11.87;;;;;;;0.00;100.00;99595.19;5042102;28;20224;-70
2022/03/22 05:34:45;;;;;;;18.07;12.47;;;;;;;0.09;100.00;99597.75;5052457;28;20226;-70
2022/03/22 05:37:13;;;;;;;19.77;13.10;;;;;;;0.11;100.00;99597.72;5041279;28;20215;-71
2022/03/22 05:39:40;;;;;;;19.70;13.60;;;;;;;0.11;100.00;99593.41;5050173;28;20311;-71
2022/03/22 05:42:07;;;;;;;19.70;13.73;;;;;;;0.17;100.00;99598.59;5050239;28;20242;-70
2022/03/22 05:44:35;;;;;;;18.90;13.50;;;;;;;0.19;100.00;99607.22;5041853;28;20299;-71
2022/03/22 05:47:02;;;;;;;19.50;13.30;;;;;;;0.15;100.00;99608.13;5041673;28;20227;-70
2022/03/22 05:49:28;;;;;;;20.03;13.43;;;;;;;0.33;100.00;99605.41;5050061;28;20308;-69
2022/03/22 05:51:57;;;;;;;21.90;13.43;;;;;;;0.32;100.00;99603.69;5049223;28;20220;-71
2022/03/22 05:54:24;;;;;;;19.60;13.23;;;;;;;0.27;100.00;99600.28;5038910;28;20248;-70
2022/03/22 05:56:50;;;;;;;20.17;12.93;;;;;;;0.41;100.00;99607.97;5052249;28;20621;-69
2022/03/22 05:59:17;;;;;;;20.73;14.17;;;;;;;0.55;100.00;99599.22;5043272;28;20589;-69
2022/03/22 06:01:45;;;;;;;18.03;12.87;;;;;;;0.55;100.00;99585.38;5043894;28;20252;-69
2022/03/22 06:04:12;;;;;;;22.67;14.83;;;;;;;0.70;100.00;99601.75;5051272;28;20222;-69
2022/03/22 06:06:39;;;;;;;19.87;13.63;;;;;;;0.79;100.00;99596.44;5039504;28;20218;-69
2022/03/22 06:09:05;;;;;;;20.23;13.73;;;;;;;0.91;99.07;99593.75;5048161;28;20227;-68
2022/03/22 06:11:34;;;;;;;23.97;14.90;;;;;;;1.03;98.69;99595.38;5046946;28;20214;-68
2022/03/22 06:14:01;;;;;;;23.23;15.43;;;;;;;1.05;98.16;99591.91;5040015;28;20224;-69
2022/03/22 06:16:27;;;;;;;20.43;13.73;;;;;;;1.17;98.44;99589.19;5041218;28;20608;-68
2022/03/22 06:18:55;;;;;;;23.33;13.87;;;;;;;1.25;97.91;99587.41;5048520;28;20212;-69
2022/03/22 06:21:22;;;;;;;20.23;13.47;;;;;;;1.34;97.34;99592.50;5051732;28;20218;-69
2022/03/22 06:23:48;;;;;;;19.90;14.53;;;;;;;1.47;96.65;99594.09;5039989;28;20215;-69
2022/03/22 06:26:15;;;;;;;25.27;15.60;;;;;;;1.62;96.71;99599.19;5051582;28;20221;-68
2022/03/22 06:28:42;;;;;;;19.07;13.43;;;;;;;1.73;95.74;99606.88;5041935;28;20642;-68
2022/03/22 06:31:08;;;;;;;23.43;15.33;;;;;;;1.87;94.42;99590.19;5044370;28;20589;-69
2022/03/22 06:33:35;;;;;;;22.30;14.63;;;;;;;2.02;92.04;99589.16;5049906;28;20223;-69
2022/03/22 06:36:04;;;;;;;18.57;13.47;;;;;;;2.14;91.06;99586.41;5038602;28;20228;-69
2022/03/22 06:38:32;;;;;;;20.93;14.33;;;;;;;2.24;90.65;99585.38;5048457;28;20242;-69
2022/03/22 06:40:58;;;;;;;20.53;14.40;;;;;;;2.36;90.67;99586.09;5045821;28;20244;-69
2022/03/22 06:43:25;;;;;;;24.20;15.37;;;;;;;2.46;90.57;99587.66;5039048;28;20739;-69
2022/03/22 06:45:52;;;;;;;21.23;14.43;;;;;;;2.57;90.13;99584.94;5050419;28;20293;-69
2022/03/22 06:48:19;;;;;;;22.63;14.77;;;;;;;2.76;89.01;99592.44;5040339;28;20226;-68
2022/03/22 06:50:49;;;;;;;23.27;15.00;;;;;;;3.05;87.55;99603.28;5044551;28;20223;-68
2022/03/22 06:53:17;;;;;;;23.00;14.97;;;;;;;3.14;86.92;99605.78;5049542;28;20256;-68
2022/03/22 06:55:44;;;;;;;23.30;14.27;;;;;;;3.14;87.43;99599.69;5038181;28;20230;-68
2022/03/22 06:58:14;;;;;;;22.27;15.03;;;;;;;3.20;88.12;99600.44;5047755;28;20219;-68
2022/03/22 07:00:41;;;;;;;22.43;15.10;;;;;;;3.35;87.60;99610.63;5045606;28;20254;-68
2022/03/22 07:03:08;;;;;;;20.10;14.73;;;;;;;3.43;84.38;99608.72;5039431;28;20240;-67
2022/03/22 07:05:35;;;;;;;21.93;14.77;;;;;;;3.49;85.15;99603.41;5050711;28;20213;-68
2022/03/22 07:08:01;;;;;;;20.13;14.97;;;;;;;3.55;83.95;99602.44;5041433;28;20211;-68
2022/03/22 07:10:30;;;;;;;20.03;13.50;;;;;;;3.63;84.60;99606.66;5043660;28;20227;-68
2022/03/22 07:12:58;;;;;;;20.37;15.17;;;;;;;3.76;82.91;99608.13;5047591;28;20219;-68
2022/03/22 07:15:28;;;;;;;22.83;14.80;;;;;;;3.85;79.98;99607.94;5038144;28;20216;-68
2022/03/22 07:17:57;;;;;;;20.73;14.10;;;;;;;3.94;81.61;99612.16;5046775;28;20231;-69
2022/03/22 07:20:24;;;;;;;19.70;14.57;;;;;;;4.05;82.29;99615.41;5045610;28;20222;-68
2022/03/22 07:22:51;;;;;;;21.10;14.90;;;;;;;4.26;82.82;99613.22;5054096;28;20263;-69
2022/03/22 07:25:18;;;;;;;20.93;14.27;;;;;;;4.44;80.29;99610.22;5037966;28;20211;-69
2022/03/22 07:27:47;;;;;;;20.80;13.17;;;;;;;4.60;80.72;99610.75;5046776;28;20239;-69
2022/03/22 07:30:14;;;;;;;19.60;13.47;;;;;;;4.73;78.64;99612.19;5038374;28;20208;-69
2022/03/22 07:32:41;;;;;;;19.97;14.60;;;;;;;4.83;76.84;99609.31;5049648;28;20579;-68
2022/03/22 07:35:09;;;;;;;20.00;14.13;;;;;;;4.94;76.75;99612.56;5037099;28;20692;-68
2022/03/22 07:37:36;;;;;;;21.83;14.03;;;;;;;5.07;77.54;99616.63;5044066;28;20240;-69
2022/03/22 07:40:06;;;;;;;20.13;14.30;;;;;;;5.15;78.97;99608.56;5041797;28;20235;-70
2022/03/22 07:42:32;;;;;;;19.87;14.37;;;;;;;5.26;76.93;99610.03;5036752;28;20240;-67
2022/03/22 07:45:03;;;;;;;18.20;12.83;;;;;;;5.33;74.59;99609.00;5048617;28;20587;-68
2022/03/22 07:47:31;;;;;;;17.00;13.13;;;;;;;5.44;73.01;99614.81;5041861;28;20228;-69
2022/03/22 07:53:01;;;;;;;17.13;12.83;;;;;;;5.65;72.34;99619.53;5049806;28;20219;-68
2022/03/22 07:55:29;;;;;;;20.33;12.47;;;;;;;5.70;70.99;99622.00;5042223;28;20210;-68
2022/03/22 07:57:57;;;;;;;17.63;12.53;;;;;;;5.80;70.85;99613.88;5040407;28;20228;-67
2022/03/22 08:00:26;;;;;;;17.97;12.03;;;;;;;5.87;71.30;99620.69;5049731;28;20268;-70
2022/03/22 08:02:54;;;;;;;15.63;12.27;;;;;;;6.05;70.36;99614.94;5038491;28;20614;-68
2022/03/22 08:05:20;;;;;;;16.40;11.93;;;;;;;6.29;71.40;99614.25;5042683;28;20214;-69
2022/03/22 08:07:47;;;;;;;15.13;11.47;;;;;;;6.46;70.39;99612.00;5046264;28;20675;-69
2022/03/22 08:10:14;;;;;;;14.37;10.73;;;;;;;6.65;69.39;99620.22;5036967;28;20677;-68
2022/03/22 08:12:41;;;;;;;15.97;11.40;;;;;;;6.77;67.46;99623.31;5048741;28;20215;-69
2022/03/22 08:15:08;;;;;;;15.70;11.43;;;;;;;6.98;66.35;99621.78;5041777;28;20705;-69
2022/03/22 08:17:36;;;;;;;15.43;11.00;;;;;;;7.13;63.67;99622.16;5040460;28;20295;-70
2022/03/22 08:20:04;;;;;;;16.30;11.17;;;;;;;7.27;64.20;99612.06;5050340;28;20214;-69
2022/03/22 08:22:32;;;;;;;14.27;10.77;;;;;;;7.32;63.13;99618.03;5048397;28;20240;-70
2022/03/22 08:24:58;;;;;;;17.00;11.60;;;;;;;7.50;63.71;99618.28;5033410;28;20326;-69
2022/03/22 08:27:25;;;;;;;14.60;10.83;;;;;;;7.69;62.16;99614.13;5045763;28;20223;-69
2022/03/22 08:29:52;;;;;;;17.07;11.40;;;;;;;7.78;62.51;99605.91;5035522;28;20219;-69
2022/03/22 08:32:18;;;;;;;15.60;11.73;;;;;;;7.85;62.19;99614.44;5044894;28;20218;-70
2022/03/22 08:34:46;;;;;;;14.23;11.33;;;;;;;8.07;61.62;99615.41;5040423;28;20209;-70
2022/03/22 08:37:13;;;;;;;17.37;11.80;;;;;;;8.33;60.40;99607.47;5039599;28;20222;-68
2022/03/22 08:39:39;;;;;;;15.63;11.73;;;;;;;8.57;58.00;99603.91;5047032;28;20223;-69
2022/03/22 08:42:07;;;;;;;19.73;12.20;;;;;;;8.78;57.69;99603.09;5043170;28;20215;-68
2022/03/22 08:44:33;;;;;;;15.07;11.50;;;;;;;8.86;56.73;99598.34;5068367;28;20269;-66
2022/03/22 08:47:01;;;;;;;14.57;11.97;;;;;;;9.01;56.66;99601.25;5067502;28;20211;-65
2022/03/22 08:49:27;;;;;;;17.30;11.63;;;;;;;9.13;54.51;99610.47;5062341;28;20219;-68
2022/03/22 08:51:55;;;;;;;15.37;11.40;;;;;;;9.34;54.51;99607.81;5052791;28;20677;-68
2022/03/22 08:54:22;;;;;;;16.27;11.57;;;;;;;9.32;54.47;99596.47;5062360;28;20478;-68
2022/03/22 08:56:49;;;;;;;15.37;12.03;;;;;;;9.39;52.92;99603.22;5061662;28;20225;-67
2022/03/22 08:59:15;;;;;;;16.10;11.20;;;;;;;9.46;52.77;99601.16;5046620;28;20227;-69
2022/03/22 09:01:41;;;;;;;15.53;11.10;;;;;;;9.71;53.37;99602.72;5038348;28;20236;-68
2022/03/22 09:06:52;;;;;;;16.90;11.70;;;;;;;9.90;51.34;99602.81;5050818;28;20215;-67
2022/03/22 09:09:20;;;;;;;15.43;11.63;;;;;;;10.03;49.82;99593.41;5055648;28;20263;-67
2022/03/22 09:11:46;;;;;;;17.83;12.27;;;;;;;10.11;50.82;99592.19;5052876;28;20216;-69
2022/03/22 09:14:13;;;;;;;14.47;11.40;;;;;;;10.22;49.57;99594.34;5050738;28;20591;-67
2022/03/22 09:16:40;;;;;;;17.10;11.87;;;;;;;10.25;50.46;99595.06;5051990;28;20689;-68
2022/03/22 09:19:06;;;;;;;16.43;11.60;;;;;;;10.30;50.67;99592.22;5054785;28;20215;-69
2022/03/22 09:21:33;;;;;;;14.50;11.87;;;;;;;10.41;49.38;99603.16;5046844;28;20292;-68
2022/03/22 09:24:00;;;;;;;17.63;11.77;;;;;;;10.46;47.99;99599.38;5043741;28;20332;-67
2022/03/22 09:26:28;;;;;;;16.47;11.37;;;;;;;10.56;48.09;99597.16;5053810;28;20216;-67
2022/03/22 09:28:55;;;;;;;17.93;12.20;;;;;;;10.71;49.18;99588.53;5052309;28;20220;-67
2022/03/22 09:31:23;;;;;;;15.07;11.90;;;;;;;10.72;47.86;99595.53;5053385;28;20207;-67
2022/03/22 09:33:49;;;;;;;15.70;11.73;;;;;;;10.85;47.71;99592.25;5053262;28;20303;-68
2022/03/22 09:36:16;;;;;;;17.30;12.00;;;;;;;10.94;48.47;99597.09;5051408;28;20216;-68
2022/03/22 09:38:44;;;;;;;15.03;11.47;;;;;;;11.07;47.79;99594.72;5052461;28;20217;-68
2022/03/22 09:41:13;;;;;;;17.93;12.10;;;;;;;11.29;46.44;99595.38;5053206;28;20251;-68
2022/03/22 09:43:45;;;;;;;14.43;10.80;;;;;;;11.23;46.66;99593.91;5051268;28;20263;-68
2022/03/22 09:46:13;;;;;;;15.57;11.67;;;;;;;11.18;45.54;99584.50;5053169;28;20565;-68
2022/03/22 09:48:39;;;;;;;16.40;11.23;;;;;;;11.32;44.79;99587.31;5054009;28;20270;-68
2022/03/22 09:53:52;;;;;;;16.33;12.07;;;;;;;11.36;44.92;99586.19;5052787;28;20728;-68
2022/03/22 09:56:20;;;;;;;15.83;11.43;;;;;;;11.36;45.20;99584.44;5053056;28;20208;-69
2022/03/22 09:58:48;;;;;;;16.13;11.70;;;;;;;11.42;45.05;99575.31;5042438;28;20230;-69
2022/03/22 10:01:14;;;;;;;15.77;11.73;;;;;;;11.35;44.60;99572.13;5044984;28;20232;-69
2022/03/22 10:03:41;;;;;;;14.23;10.97;;;;;;;11.40;45.37;99574.53;5058884;28;20239;-68
2022/03/22 10:06:08;;;;;;;14.70;11.40;;;;;;;11.45;45.49;99568.09;5064887;28;20225;-69
2022/03/22 10:08:37;;;;;;;15.40;11.87;;;;;;;11.58;45.34;99573.63;5069005;28;20220;-68
2022/03/22 10:11:04;;;;;;;16.97;12.63;;;;;;;11.78;43.69;99570.84;5069253;28;20221;-69
2022/03/22 10:13:33;;;;;;;16.00;11.50;;;;;;;11.72;42.72;99565.84;5067865;28;20213;-69
2022/03/22 10:16:06;;;;;;;15.07;11.27;;;;;;;11.81;43.23;99562.75;5065314;28;20228;-69
2022/03/22 10:18:35;;;;;;;13.37;11.10;;;;;;;11.83;42.67;99568.81;5042874;28;20217;-70
2022/03/22 10:21:03;;;;;;;15.23;11.70;;;;;;;11.75;43.20;99566.56;5064752;28;20209;-70
2022/03/22 10:23:31;;;;;;;14.73;11.67;;;;;;;11.94;42.58;99561.19;5068603;28;20234;-69
2022/03/22 10:26:07;;;;;;;16.63;11.70;;;;;;;12.05;42.77;99561.47;5066327;28;20228;-69
2022/03/22 10:28:34;;;;;;;16.80;11.83;;;;;;;12.29;42.60;99553.06;5067369;28;20212;-70
2022/03/22 10:31:01;;;;;;;14.77;11.73;;;;;;;12.34;41.54;99564.28;5068418;28;20249;-70
2022/03/22 10:33:28;;;;;;;15.03;11.53;;;;;;;12.51;42.61;99558.06;5066996;28;20214;-68
2022/03/22 10:35:55;;;;;;;14.67;11.40;;;;;;;12.63;40.61;99552.09;5066135;28;20226;-69
2022/03/22 10:38:23;;;;;;;13.00;10.77;;;;;;;12.54;41.55;99552.59;5068779;28;20213;-69
2022/03/22 10:40:50;;;;;;;13.43;11.43;;;;;;;12.52;41.42;99543.84;5068382;28;20263;-69
2022/03/22 10:43:18;;;;;;;15.43;11.17;;;;;;;12.62;39.75;99545.94;5065859;28;20250;-69
2022/03/22 10:45:47;;;;;;;16.57;12.40;;;;;;;12.76;40.91;99554.00;5064628;28;20769;-69
2022/03/22 10:48:16;;;;;;;13.97;11.97;;;;;;;12.79;39.66;99552.97;5068704;28;20221;-69
2022/03/22 10:50:46;;;;;;;16.10;11.50;;;;;;;12.70;39.04;99548.16;5066939;28;20230;-69
2022/03/22 10:53:15;;;;;;;14.80;11.33;;;;;;;12.76;39.38;99553.13;5065244;28;20250;-69
2022/03/22 10:55:42;;;;;;;15.10;12.00;;;;;;;12.87;38.74;99546.28;5067246;28;20226;-69
2022/03/22 10:58:11;;;;;;;16.67;12.57;;;;;;;12.97;38.55;99544.84;5066835;28;20238;-69
2022/03/22 11:00:38;;;;;;;14.27;12.13;;;;;;;12.98;37.69;99551.03;5067934;28;20212;-69
2022/03/22 11:03:06;;;;;;;17.23;11.97;;;;;;;12.96;38.64;99550.25;5042880;28;20233;-69
2022/03/22 11:05:34;;;;;;;16.03;12.77;;;;;;;13.04;37.63;99542.72;5065555;28;20406;-69
2022/03/22 11:08:02;;;;;;;15.57;11.93;;;;;;;12.97;37.33;99546.66;5067859;28;20219;-71
2022/03/22 11:10:30;;;;;;;15.17;11.63;;;;;;;12.93;37.68;99534.47;5068238;28;20220;-69
2022/03/22 11:12:57;;;;;;;14.73;11.80;;;;;;;12.96;37.55;99542.31;5063333;28;20222;-70
2022/03/22 11:15:26;;;;;;;18.77;12.17;;;;;;;12.92;37.27;99540.72;5054262;28;20245;-69
2022/03/22 11:17:55;;;;;;;16.10;12.50;;;;;;;12.98;37.53;99537.75;5068399;28;20386;-69
2022/03/22 11:20:23;;;;;;;16.27;12.47;;;;;;;13.03;37.64;99533.88;5057170;28;20234;-70
2022/03/22 11:22:54;;;;;;;14.67;11.80;;;;;;;13.21;38.51;99534.66;5064241;28;20227;-71
2022/03/22 11:25:28;;;;;;;13.63;11.40;;;;;;;13.34;38.28;99536.50;5043035;28;20694;-68
2022/03/22 11:27:57;;;;;;;12.70;11.30;;;;;;;13.31;39.03;99526.06;5059737;28;20247;-70
2022/03/22 11:30:26;;;;;;;16.37;12.30;;;;;;;13.40;38.85;99529.97;5063032;28;20215;-69
2022/03/22 11:35:52;;;;;;;17.00;12.97;;;;;;;13.56;38.28;99528.97;5065965;28;20244;-70
2022/03/22 11:38:40;;;;;;;16.77;12.70;;;;;;;13.70;38.59;99512.22;5055966;28;20216;-69
2022/03/22 11:44:07;;;;;;;16.73;13.23;;;;;;;13.80;39.13;99518.69;5070419;28;20245;-69
2022/03/22 11:46:34;;;;;;;15.97;12.40;;;;;;;14.01;37.31;99509.41;5065058;28;20220;-70
2022/03/22 11:49:11;;;;;;;15.30;12.87;;;;;;;13.96;37.48;99519.47;5070667;28;20226;-70
2022/03/22 11:51:47;;;;;;;15.63;12.13;;;;;;;14.01;37.48;99512.06;5070590;28;20214;-69
2022/03/22 11:54:14;;;;;;;16.40;13.00;;;;;;;14.03;37.64;99508.38;5068177;28;20296;-69
2022/03/22 11:56:48;;;;;;;16.57;12.90;;;;;;;13.90;37.38;99511.88;5069569;28;20671;-70